Time;durP1;ratioP1;P1;durP2;ratioP2;P2;SDS_P1;SDS_P2;PMS_P1;PMS_P2;Temp;Humidity;BMP_temperature;BMP_pressure;BME280_temperature;BME280_humidity;BME280_pressure;Samples;Min_cycle;Max_cycle;Signal;HPM_P1;HPM_P2
2022/04/05 00:00:45;;;;;;;39.37;15.37;;;;;;;39.51;42.87;100978.97;4768255;30;20448;-70
2022/04/05 00:03:11;;;;;;;37.33;15.00;;;;;;;39.55;42.76;100971.78;4753474;30;20424;-73
2022/04/05 00:05:37;;;;;;;26.67;11.47;;;;;;;39.60;42.63;100968.97;4769229;30;20462;-73
2022/04/05 00:08:04;;;;;;;48.97;12.70;;;;;;;39.61;42.28;100967.06;4769284;30;20784;-72
2022/04/05 00:10:52;;;;;;;42.33;14.83;;;;;;;39.47;42.68;100967.13;4753320;30;20442;-72
2022/04/05 00:13:18;;;;;;;44.23;15.23;;;;;;;39.44;43.05;100956.91;4767839;30;20569;-71
2022/04/05 00:15:44;;;;;;;37.77;14.30;;;;;;;39.28;43.20;100950.28;4769291;30;20455;-71
2022/04/05 00:18:10;;;;;;;32.07;12.00;;;;;;;39.34;43.35;100946.31;4767918;30;20464;-71
2022/04/05 00:20:36;;;;;;;24.53;13.87;;;;;;;39.34;43.35;100936.25;4767298;30;20428;-72
2022/04/05 00:23:02;;;;;;;36.30;13.70;;;;;;;39.45;43.38;100936.78;4767895;30;20574;-72
2022/04/05 00:25:28;;;;;;;39.67;13.40;;;;;;;39.53;43.11;100930.56;4768864;30;20987;-73
2022/04/05 00:27:54;;;;;;;38.83;13.83;;;;;;;39.50;43.27;100925.78;4767825;30;20936;-73
2022/04/05 00:30:20;;;;;;;29.30;13.40;;;;;;;39.30;43.66;100926.38;4767752;30;20423;-71
2022/04/05 00:32:47;;;;;;;31.50;13.30;;;;;;;39.27;43.62;100918.84;4767555;30;20468;-72
2022/04/05 00:35:13;;;;;;;35.73;14.57;;;;;;;39.09;44.12;100910.59;4767821;30;20513;-72
2022/04/05 00:37:39;;;;;;;25.63;14.60;;;;;;;39.22;43.99;100915.16;4767730;30;20467;-70
2022/04/05 00:40:07;;;;;;;34.00;13.33;;;;;;;39.19;44.08;100909.56;4767572;30;20557;-70
2022/04/05 00:42:36;;;;;;;64.83;16.87;;;;;;;39.06;44.75;100903.09;4767637;30;20489;-70
2022/04/05 00:45:07;;;;;;;35.17;14.53;;;;;;;39.03;44.56;100906.44;4754663;30;20988;-70
2022/04/05 00:47:34;;;;;;;35.93;13.97;;;;;;;39.15;44.41;100908.56;4771049;30;20444;-69
2022/04/05 00:50:02;;;;;;;19.33;10.10;;;;;;;39.05;44.19;100901.50;4771287;30;20427;-70
2022/04/05 00:52:28;;;;;;;31.80;11.40;;;;;;;39.01;44.38;100907.88;4756632;30;20436;-72
2022/04/05 00:54:55;;;;;;;34.63;14.90;;;;;;;39.05;44.18;100903.44;4771045;30;20475;-70
2022/04/05 00:57:23;;;;;;;35.67;14.27;;;;;;;39.14;44.20;100909.66;4771091;30;20459;-70
2022/04/05 01:00:01;;;;;;;37.20;14.17;;;;;;;39.14;44.04;100902.34;4772337;30;20403;-70
2022/04/05 01:02:30;;;;;;;33.00;13.60;;;;;;;39.21;44.10;100899.19;4770871;30;20452;-70
2022/04/05 01:04:56;;;;;;;30.57;13.40;;;;;;;39.14;44.46;100899.63;4770991;30;20812;-70
2022/04/05 01:07:24;;;;;;;48.00;14.23;;;;;;;39.14;44.53;100890.69;4771173;30;20400;-73
2022/04/05 01:09:54;;;;;;;40.47;17.37;;;;;;;39.28;44.70;100896.00;4771158;30;20432;-71
2022/04/05 01:12:21;;;;;;;25.20;14.57;;;;;;;39.27;44.32;100892.50;4770957;30;20955;-70
2022/04/05 01:14:48;;;;;;;26.93;11.43;;;;;;;39.22;44.40;100889.94;4772124;30;20897;-70
2022/04/05 01:17:16;;;;;;;33.90;14.30;;;;;;;39.20;44.87;100890.25;4770516;30;20856;-71
2022/04/05 01:19:42;;;;;;;31.47;12.77;;;;;;;39.30;44.70;100880.25;4772146;30;20475;-70
2022/04/05 01:22:09;;;;;;;34.57;15.53;;;;;;;39.23;44.38;100875.28;4770615;30;20812;-70
2022/04/05 01:24:35;;;;;;;34.70;14.80;;;;;;;39.27;44.48;100865.38;4772006;30;20401;-71
2022/04/05 01:27:16;;;;;;;34.70;13.23;;;;;;;39.27;44.45;100867.28;4770682;30;20432;-70
2022/04/05 01:29:42;;;;;;;25.37;12.30;;;;;;;39.10;44.69;100871.53;4770641;30;20428;-71
2022/04/05 01:32:09;;;;;;;43.67;15.60;;;;;;;39.11;44.91;100859.56;4770398;30;20821;-71
2022/04/05 01:34:37;;;;;;;22.57;12.43;;;;;;;39.12;44.48;100858.44;4772775;30;20443;-71
2022/04/05 01:37:06;;;;;;;36.37;16.20;;;;;;;39.01;44.86;100849.00;4770460;30;20854;-70
2022/04/05 01:39:34;;;;;;;27.77;11.60;;;;;;;39.04;44.64;100848.38;4770411;30;20457;-69
2022/04/05 01:42:04;;;;;;;37.37;12.80;;;;;;;39.07;44.34;100841.50;4770430;30;20431;-73
2022/04/05 01:44:32;;;;;;;31.87;12.07;;;;;;;39.02;44.41;100834.31;4771597;30;20401;-71
2022/04/05 01:47:10;;;;;;;40.83;15.80;;;;;;;39.01;44.49;100827.28;4770362;30;20412;-70
2022/04/05 01:49:38;;;;;;;33.50;13.27;;;;;;;39.06;44.60;100823.66;4770247;30;20429;-70
2022/04/05 01:52:05;;;;;;;27.53;11.60;;;;;;;38.95;44.62;100826.63;4771544;30;20901;-72
2022/04/05 01:54:31;;;;;;;30.77;14.33;;;;;;;39.08;44.65;100832.25;4770258;30;20929;-70
2022/04/05 01:56:57;;;;;;;39.37;15.87;;;;;;;38.95;44.62;100828.53;4770176;30;20633;-69
2022/04/05 01:59:26;;;;;;;23.70;12.33;;;;;;;38.95;44.59;100828.53;4770184;30;20424;-71
2022/04/05 02:01:52;;;;;;;31.27;13.97;;;;;;;39.11;43.89;100824.28;4770000;30;20444;-70
2022/04/05 02:04:19;;;;;;;25.63;10.53;;;;;;;39.01;44.22;100819.16;4769948;30;20456;-70
2022/04/05 02:06:46;;;;;;;41.97;15.93;;;;;;;39.08;44.24;100819.50;4770014;30;20428;-70
2022/04/05 02:09:14;;;;;;;47.03;16.83;;;;;;;38.87;44.84;100810.34;4769438;30;20932;-69
2022/04/05 02:11:44;;;;;;;30.97;14.30;;;;;;;38.92;44.69;100808.28;4769790;30;20818;-72
2022/04/05 02:14:11;;;;;;;28.10;12.80;;;;;;;38.88;44.78;100814.66;4769395;30;20460;-72
2022/04/05 02:16:37;;;;;;;51.20;13.87;;;;;;;38.84;44.74;100810.94;4771121;30;20400;-72
2022/04/05 02:19:04;;;;;;;37.20;18.30;;;;;;;38.88;44.95;100814.66;4769849;30;20485;-72
2022/04/05 02:21:30;;;;;;;34.20;16.20;;;;;;;38.89;44.59;100808.09;4769730;30;20424;-71
2022/04/05 02:23:56;;;;;;;35.90;11.63;;;;;;;38.63;44.53;100803.34;4769691;30;20820;-70
2022/04/05 02:26:22;;;;;;;29.23;11.30;;;;;;;38.59;44.53;100794.25;4770889;30;20432;-70
2022/04/05 02:28:48;;;;;;;33.17;13.73;;;;;;;38.58;45.00;100787.22;4769758;30;20448;-72
2022/04/05 02:31:16;;;;;;;43.13;18.27;;;;;;;38.41;45.37;100792.56;4769653;30;20489;-71
2022/04/05 02:33:43;;;;;;;28.20;12.37;;;;;;;38.41;45.49;100785.22;4769318;30;20490;-72
2022/04/05 02:36:09;;;;;;;26.03;13.07;;;;;;;38.35;45.73;100786.47;4769402;30;20455;-72
2022/04/05 02:38:36;;;;;;;39.53;14.23;;;;;;;38.24;45.37;100792.44;4769354;30;20471;-73
2022/04/05 02:41:05;;;;;;;34.97;11.93;;;;;;;38.22;45.17;100791.94;4769607;30;20432;-73
2022/04/05 02:43:32;;;;;;;25.17;11.07;;;;;;;38.38;45.67;100795.91;4754873;30;20424;-70
2022/04/05 02:45:59;;;;;;;23.23;11.97;;;;;;;38.38;45.12;100793.19;4769408;30;20511;-69
2022/04/05 02:48:26;;;;;;;27.70;12.83;;;;;;;38.52;45.48;100793.91;4769340;30;20412;-72
2022/04/05 02:50:52;;;;;;;22.53;10.23;;;;;;;38.42;44.79;100796.88;4769187;30;20428;-73
2022/04/05 02:53:19;;;;;;;24.33;12.67;;;;;;;38.49;44.72;100797.25;4769237;30;20428;-73
2022/04/05 02:55:45;;;;;;;38.40;17.43;;;;;;;38.47;45.17;100799.44;4769142;30;20443;-70
2022/04/05 02:58:12;;;;;;;29.13;13.17;;;;;;;38.50;45.27;100796.13;4770336;30;20500;-70
2022/04/05 03:00:39;;;;;;;22.93;13.70;;;;;;;38.13;45.80;100802.75;4769036;30;20423;-72
2022/04/05 03:03:05;;;;;;;29.00;13.60;;;;;;;38.47;45.34;100801.34;4769083;30;20551;-70
2022/04/05 03:05:32;;;;;;;37.60;14.83;;;;;;;38.24;45.45;100812.19;4770271;30;20924;-70
2022/04/05 03:07:58;;;;;;;31.13;12.43;;;;;;;38.41;44.87;100809.63;4768439;30;20433;-70
2022/04/05 03:10:25;;;;;;;34.87;13.73;;;;;;;38.38;45.28;100814.88;4768913;30;20428;-70
2022/04/05 03:12:51;;;;;;;49.80;13.40;;;;;;;38.22;45.50;100814.41;4768895;30;20447;-70
2022/04/05 03:15:17;;;;;;;24.03;10.67;;;;;;;38.43;44.95;100817.44;4768892;30;20466;-70
2022/04/05 03:17:45;;;;;;;28.73;15.80;;;;;;;38.47;44.91;100818.41;4768763;30;20550;-73
2022/04/05 03:20:14;;;;;;;22.47;11.43;;;;;;;38.51;44.77;100821.31;4768554;30;20496;-73
2022/04/05 03:22:42;;;;;;;26.27;11.63;;;;;;;38.58;44.63;100813.53;4768764;30;20428;-71
2022/04/05 03:25:10;;;;;;;32.60;11.63;;;;;;;38.49;44.91;100812.66;4768613;30;20444;-70
2022/04/05 03:27:43;;;;;;;38.17;12.97;;;;;;;38.51;44.89;100827.53;4768638;30;20445;-71
2022/04/05 03:30:11;;;;;;;40.13;13.03;;;;;;;38.56;44.95;100823.91;4768605;30;20465;-72
2022/04/05 03:32:37;;;;;;;31.50;12.60;;;;;;;38.28;45.40;100828.66;4768294;30;20476;-72
2022/04/05 03:35:05;;;;;;;30.37;10.67;;;;;;;38.42;45.28;100827.47;4768487;30;20955;-72
2022/04/05 03:37:32;;;;;;;30.10;12.10;;;;;;;38.40;45.47;100829.69;4768359;30;20471;-73
2022/04/05 03:39:59;;;;;;;32.50;12.90;;;;;;;38.38;45.48;100831.94;4768370;30;20448;-72
2022/04/05 03:42:25;;;;;;;36.13;11.60;;;;;;;38.35;45.50;100829.03;4779556;24;20417;-69
2022/04/05 03:44:51;;;;;;;34.20;12.40;;;;;;;38.34;45.77;100827.44;4767626;30;20484;-70
2022/04/05 03:47:18;;;;;;;30.27;12.40;;;;;;;38.48;45.34;100820.00;4769687;30;20834;-72
2022/04/05 03:49:44;;;;;;;38.93;11.80;;;;;;;38.64;45.19;100815.78;4768078;30;20902;-71
2022/04/05 03:52:10;;;;;;;26.97;14.03;;;;;;;38.56;45.48;100824.69;4768293;30;20950;-70
2022/04/05 03:54:37;;;;;;;42.17;12.77;;;;;;;38.49;45.49;100823.50;4768162;30;20436;-70
2022/04/05 03:57:03;;;;;;;23.10;10.90;;;;;;;38.66;45.07;100829.03;4753387;30;20467;-70
2022/04/05 03:59:29;;;;;;;23.17;11.70;;;;;;;38.73;44.79;100828.59;4769505;30;20416;-69
2022/04/05 04:01:55;;;;;;;36.17;11.80;;;;;;;38.59;45.22;100829.47;4768005;30;20508;-70
2022/04/05 04:04:21;;;;;;;32.10;13.30;;;;;;;38.68;45.27;100822.19;4753498;30;20948;-70
2022/04/05 04:06:47;;;;;;;36.97;13.53;;;;;;;38.48;45.90;100820.00;4769336;30;20428;-70
2022/04/05 04:09:14;;;;;;;39.23;18.50;;;;;;;38.59;45.74;100826.75;4768027;30;20506;-72
2022/04/05 04:11:44;;;;;;;23.90;11.90;;;;;;;38.30;45.65;100826.44;4769322;30;20834;-70
2022/04/05 04:14:11;;;;;;;24.17;11.93;;;;;;;38.26;45.96;100831.69;4767938;30;20443;-69
2022/04/05 04:16:37;;;;;;;22.63;9.87;;;;;;;38.23;46.05;100834.19;4768000;30;20436;-70
2022/04/05 04:19:04;;;;;;;30.20;9.83;;;;;;;38.32;46.20;100833.16;4766489;30;20968;-72
2022/04/05 04:21:30;;;;;;;34.00;11.33;;;;;;;38.48;46.09;100830.84;4779518;24;20527;-70
2022/04/05 04:23:56;;;;;;;28.50;14.10;;;;;;;38.38;46.14;100833.84;4767982;30;20509;-70
2022/04/05 04:26:22;;;;;;;27.10;12.37;;;;;;;38.42;46.18;100832.88;4767793;30;20862;-70
2022/04/05 04:28:53;;;;;;;25.43;12.23;;;;;;;38.25;45.95;100824.66;4767928;30;20444;-69
2022/04/05 04:31:19;;;;;;;27.20;11.93;;;;;;;38.19;45.22;100839.44;4767900;30;20436;-72
2022/04/05 04:33:45;;;;;;;31.33;10.13;;;;;;;38.34;45.11;100846.41;4767807;30;20501;-70
2022/04/05 04:36:11;;;;;;;32.90;12.30;;;;;;;37.83;46.24;100842.19;4769097;30;20466;-70
2022/04/05 04:38:38;;;;;;;23.57;10.37;;;;;;;38.15;46.29;100841.16;4767703;30;21225;-72
2022/04/05 04:41:04;;;;;;;29.20;12.97;;;;;;;38.05;46.00;100842.19;4767760;30;20443;-72
2022/04/05 04:43:30;;;;;;;29.23;12.57;;;;;;;38.20;46.08;100838.31;4767717;30;20867;-69
2022/04/05 04:45:56;;;;;;;30.03;11.27;;;;;;;38.10;46.23;100842.06;4767668;30;20948;-71
2022/04/05 04:48:22;;;;;;;29.47;13.07;;;;;;;38.22;46.40;100843.41;4767969;30;20924;-73
2022/04/05 04:50:49;;;;;;;27.10;12.03;;;;;;;37.95;45.51;100845.16;4767550;30;20651;-72
2022/04/05 04:53:16;;;;;;;30.43;12.87;;;;;;;38.25;44.33;100849.03;4767747;30;20432;-72
2022/04/05 04:55:42;;;;;;;28.80;13.13;;;;;;;38.28;45.03;100842.22;4767431;30;20456;-72
2022/04/05 04:58:09;;;;;;;35.83;12.93;;;;;;;38.30;44.37;100845.41;4767452;30;20479;-72
2022/04/05 05:00:35;;;;;;;26.90;11.13;;;;;;;38.00;44.62;100828.78;4767543;30;20432;-70
2022/04/05 05:03:01;;;;;;;29.87;12.10;;;;;;;37.88;45.37;100823.09;4767412;30;20456;-69
2022/04/05 05:05:27;;;;;;;37.27;12.90;;;;;;;38.17;45.30;100823.47;4767852;30;20447;-70
2022/04/05 05:07:54;;;;;;;25.93;11.97;;;;;;;38.02;45.45;100828.47;4768719;30;20448;-69
2022/04/05 05:10:21;;;;;;;38.23;15.43;;;;;;;38.04;45.54;100829.75;4767538;30;20432;-72
2022/04/05 05:12:47;;;;;;;29.30;12.17;;;;;;;37.94;45.65;100827.31;4768711;30;20464;-70
2022/04/05 05:15:21;;;;;;;34.57;10.83;;;;;;;37.96;45.71;100827.78;4768774;30;20424;-69
2022/04/05 05:17:48;;;;;;;31.27;12.93;;;;;;;37.86;46.09;100822.59;4767506;30;20472;-70
2022/04/05 05:20:16;;;;;;;38.07;14.33;;;;;;;37.63;46.17;100819.06;4767340;30;20440;-70
2022/04/05 05:22:43;;;;;;;46.20;14.93;;;;;;;37.62;46.93;100833.66;4767341;30;21022;-69
2022/04/05 05:25:10;;;;;;;30.10;12.60;;;;;;;37.61;46.92;100829.38;4768734;30;20770;-69
2022/04/05 05:27:38;;;;;;;28.77;12.20;;;;;;;37.91;45.99;100833.31;4767243;30;20471;-70
2022/04/05 05:30:08;;;;;;;33.73;11.97;;;;;;;37.87;45.90;100843.94;4767441;30;20508;-70
2022/04/05 05:32:46;;;;;;;32.20;10.50;;;;;;;37.86;46.03;100838.84;4770178;30;20527;-68
2022/04/05 05:35:17;;;;;;;21.47;13.17;;;;;;;37.94;46.19;100846.25;4770388;30;20558;-69
2022/04/05 05:37:43;;;;;;;43.10;13.33;;;;;;;38.02;46.21;100856.34;4770445;30;20468;-72
2022/04/05 05:40:11;;;;;;;34.87;14.63;;;;;;;38.10;46.17;100858.31;4770512;30;20439;-69
2022/04/05 05:43:06;;;;;;;29.73;12.57;;;;;;;38.10;45.83;100857.50;4771670;30;20454;-69
2022/04/05 05:45:35;;;;;;;25.40;12.50;;;;;;;38.13;45.98;100865.84;4777755;29;20440;-69
2022/04/05 05:48:02;;;;;;;32.67;13.83;;;;;;;38.16;45.41;100864.41;4770349;30;20432;-70
2022/04/05 05:50:29;;;;;;;30.40;10.70;;;;;;;37.97;45.75;100872.72;4771519;30;20840;-72
2022/04/05 05:52:56;;;;;;;36.67;11.77;;;;;;;38.13;45.48;100867.75;4771275;30;20428;-70
2022/04/05 05:55:23;;;;;;;34.33;15.07;;;;;;;38.12;45.22;100875.06;4770296;30;20819;-71
2022/04/05 05:57:49;;;;;;;39.93;12.30;;;;;;;38.21;45.82;100885.16;4770224;30;20476;-70
2022/04/05 06:00:21;;;;;;;27.50;11.60;;;;;;;38.17;45.65;100890.38;4771387;30;20481;-69
2022/04/05 06:02:54;;;;;;;32.97;13.20;;;;;;;38.26;45.01;100894.00;4770835;30;20418;-72
2022/04/05 06:05:21;;;;;;;43.43;13.47;;;;;;;38.19;45.81;100896.31;4767281;30;20890;-69
2022/04/05 06:07:47;;;;;;;43.67;15.57;;;;;;;38.35;45.70;100899.47;4769321;30;20439;-73
2022/04/05 06:10:14;;;;;;;29.83;14.43;;;;;;;38.35;46.13;100907.59;4769432;30;20429;-71
2022/04/05 06:12:43;;;;;;;39.60;12.77;;;;;;;38.33;46.18;100905.22;4769082;30;20470;-70
2022/04/05 06:15:12;;;;;;;35.07;12.47;;;;;;;38.54;45.48;100918.25;4769573;30;20442;-71
2022/04/05 06:17:41;;;;;;;32.33;14.70;;;;;;;38.52;45.29;100915.84;4769593;30;20506;-70
2022/04/05 06:20:09;;;;;;;24.33;11.93;;;;;;;38.56;44.86;100914.16;4769597;30;20513;-68
2022/04/05 06:22:58;;;;;;;32.67;14.63;;;;;;;38.46;45.22;100919.81;4769182;30;20492;-69
2022/04/05 06:25:32;;;;;;;37.87;12.50;;;;;;;38.48;45.33;100924.91;4747277;30;20475;-70
2022/04/05 06:28:01;;;;;;;27.20;11.43;;;;;;;38.54;45.25;100934.53;4751992;30;20425;-70
2022/04/05 06:30:28;;;;;;;27.83;14.10;;;;;;;38.56;44.95;100930.41;4753117;30;20492;-71
2022/04/05 06:33:07;;;;;;;31.97;12.70;;;;;;;38.83;44.23;100942.22;4751872;30;20444;-71
2022/04/05 06:35:35;;;;;;;37.27;17.17;;;;;;;38.80;44.79;100942.88;4751659;30;20837;-71
2022/04/05 06:38:01;;;;;;;26.17;11.60;;;;;;;38.90;44.46;100946.09;4751751;30;20472;-70
2022/04/05 06:40:27;;;;;;;30.40;13.00;;;;;;;39.08;44.05;100943.47;4759485;30;20959;-69
2022/04/05 06:42:53;;;;;;;27.53;13.60;;;;;;;39.13;44.34;100941.44;4768184;30;20428;-69
2022/04/05 06:45:19;;;;;;;26.60;11.33;;;;;;;39.00;44.14;100947.75;4769054;30;20452;-70
2022/04/05 06:47:47;;;;;;;39.37;12.87;;;;;;;38.95;44.39;100945.16;4764795;30;20464;-71
2022/04/05 06:50:14;;;;;;;33.30;12.70;;;;;;;39.04;44.79;100947.91;4767225;30;20432;-69
2022/04/05 06:52:41;;;;;;;23.53;11.30;;;;;;;39.13;44.13;100956.91;4767072;30;20503;-70
2022/04/05 06:55:09;;;;;;;29.13;13.17;;;;;;;39.17;43.99;100958.72;4767138;30;20523;-70
2022/04/05 06:57:36;;;;;;;26.53;10.80;;;;;;;39.26;43.68;100944.38;4766986;30;20488;-70
2022/04/05 07:00:04;;;;;;;28.57;10.50;;;;;;;39.17;43.66;100950.59;4766956;30;20447;-69
2022/04/05 07:02:30;;;;;;;26.93;12.70;;;;;;;39.12;44.14;100950.69;4767765;30;20550;-69
2022/04/05 07:04:56;;;;;;;30.33;11.03;;;;;;;39.26;43.96;100949.81;4767560;30;20464;-69
2022/04/05 07:07:22;;;;;;;24.10;12.70;;;;;;;39.27;43.79;100957.63;4767904;30;20456;-71
2022/04/05 07:09:49;;;;;;;28.00;12.17;;;;;;;39.35;43.78;100953.34;4768715;30;20428;-69
2022/04/05 07:12:15;;;;;;;26.57;11.33;;;;;;;39.46;43.09;100954.66;4768618;30;20924;-69
2022/04/05 07:14:41;;;;;;;33.43;10.90;;;;;;;39.44;42.88;100962.34;4768690;30;20850;-71
2022/04/05 07:17:07;;;;;;;22.57;11.57;;;;;;;39.54;42.42;100956.63;4759483;30;20546;-70
2022/04/05 07:19:33;;;;;;;19.23;9.33;;;;;;;39.56;42.61;100961.72;4779308;30;20960;-69
2022/04/05 07:22:00;;;;;;;25.20;10.13;;;;;;;39.52;42.82;100969.69;4769797;30;20519;-69
2022/04/05 07:24:27;;;;;;;29.53;11.73;;;;;;;39.53;42.85;100965.84;4768642;30;20963;-69
2022/04/05 07:26:54;;;;;;;25.27;11.43;;;;;;;39.55;43.08;100968.28;4768708;30;20447;-69
2022/04/05 07:29:20;;;;;;;23.43;10.97;;;;;;;39.63;43.23;100971.03;4768732;30;20432;-71
2022/04/05 07:31:46;;;;;;;27.87;11.40;;;;;;;39.61;43.12;100981.44;4767807;30;20847;-69
2022/04/05 07:34:12;;;;;;;24.47;12.40;;;;;;;39.57;42.85;100971.47;4768218;30;20514;-69
2022/04/05 07:36:38;;;;;;;33.17;11.00;;;;;;;39.60;42.92;100987.16;4768132;30;20447;-69
2022/04/05 07:39:05;;;;;;;26.03;13.63;;;;;;;39.70;42.58;100986.88;4769794;30;20491;-70
2022/04/05 07:41:31;;;;;;;29.13;13.97;;;;;;;39.67;42.64;100982.88;4769763;30;20503;-68
2022/04/05 07:43:57;;;;;;;22.77;8.90;;;;;;;39.66;42.16;100986.72;4767993;30;20431;-71
2022/04/05 07:46:23;;;;;;;25.30;10.30;;;;;;;39.65;42.54;100993.22;4768381;30;20436;-69
2022/04/05 07:48:49;;;;;;;26.23;9.83;;;;;;;39.71;42.17;100991.19;4767949;30;20436;-69
2022/04/05 07:51:16;;;;;;;35.73;12.70;;;;;;;39.62;42.50;100987.66;4769097;30;20440;-71
2022/04/05 07:53:43;;;;;;;27.60;11.23;;;;;;;39.63;42.64;101000.91;4765435;30;20467;-71
2022/04/05 07:56:12;;;;;;;33.97;12.80;;;;;;;39.59;42.98;101001.81;4768269;30;20424;-69
2022/04/05 07:58:40;;;;;;;20.10;9.80;;;;;;;39.57;43.04;101006.75;4753774;30;20551;-69
2022/04/05 08:01:07;;;;;;;35.20;10.10;;;;;;;39.61;42.94;101005.06;4767738;30;20459;-71
2022/04/05 08:03:34;;;;;;;31.40;9.77;;;;;;;39.52;43.11;101004.97;4769310;30;20428;-69
2022/04/05 08:06:00;;;;;;;31.10;12.37;;;;;;;39.48;43.22;101012.97;4769412;30;20412;-69
2022/04/05 08:08:26;;;;;;;24.37;10.93;;;;;;;39.61;42.76;101016.72;4768079;30;20427;-71
2022/04/05 08:10:52;;;;;;;31.67;11.03;;;;;;;39.56;42.84;101022.25;4768470;30;20452;-71
2022/04/05 08:13:18;;;;;;;29.43;14.83;;;;;;;39.36;43.31;101025.53;4768615;30;20444;-71
2022/04/05 08:15:45;;;;;;;21.60;12.50;;;;;;;39.35;43.76;101027.44;4768012;30;20428;-71
2022/04/05 08:18:11;;;;;;;27.37;13.63;;;;;;;39.59;43.18;101024.31;4767487;30;20996;-70
2022/04/05 08:20:39;;;;;;;44.40;13.53;;;;;;;39.37;44.09;101032.56;4767756;30;20456;-70
2022/04/05 08:23:07;;;;;;;20.33;9.80;;;;;;;39.01;44.51;101029.94;4768770;30;20484;-71
2022/04/05 08:25:33;;;;;;;38.27;14.37;;;;;;;39.15;44.22;101041.50;4752553;30;20499;-69
2022/04/05 08:27:59;;;;;;;42.77;15.80;;;;;;;39.08;44.27;101041.94;4753222;30;20425;-68
2022/04/05 08:30:25;;;;;;;34.97;11.10;;;;;;;38.92;44.44;101044.25;4769011;30;20569;-68
2022/04/05 08:32:51;;;;;;;34.13;13.07;;;;;;;39.13;44.05;101043.72;4769094;30;20511;-69
2022/04/05 08:35:21;;;;;;;29.20;9.33;;;;;;;39.09;44.30;101054.38;4753351;30;20455;-70
2022/04/05 08:37:49;;;;;;;36.17;12.83;;;;;;;39.13;43.78;101044.53;4752976;30;20488;-70
2022/04/05 08:40:16;;;;;;;42.27;14.57;;;;;;;38.88;44.17;101054.09;4753279;30;20473;-68
2022/04/05 08:42:47;;;;;;;30.47;11.50;;;;;;;39.03;44.16;101046.69;4767881;30;20522;-68
2022/04/05 08:45:16;;;;;;;29.70;11.77;;;;;;;39.16;44.03;101060.19;4769126;30;20744;-68
2022/04/05 08:47:47;;;;;;;21.73;11.93;;;;;;;39.10;44.22;101057.91;4767843;30;20989;-68
2022/04/05 08:50:19;;;;;;;22.93;11.80;;;;;;;39.11;44.09;101054.91;4767689;30;20424;-68
2022/04/05 08:52:46;;;;;;;26.20;9.90;;;;;;;39.20;43.48;101054.97;4753243;30;20462;-70
2022/04/05 08:55:14;;;;;;;34.10;11.80;;;;;;;38.93;44.22;101055.88;4767532;30;20920;-71
2022/04/05 08:57:40;;;;;;;28.53;14.93;;;;;;;38.96;44.34;101055.25;4768874;30;20885;-70
2022/04/05 09:00:09;;;;;;;28.63;15.23;;;;;;;39.11;43.94;101059.53;4767638;30;20440;-68
2022/04/05 09:02:35;;;;;;;32.73;12.07;;;;;;;39.26;43.33;101053.72;4767430;30;20827;-68
2022/04/05 09:05:02;;;;;;;38.73;11.60;;;;;;;39.18;43.59;101049.84;4768846;30;20413;-69
2022/04/05 09:07:34;;;;;;;23.77;12.40;;;;;;;39.34;43.42;101055.66;4770938;30;20808;-71
2022/04/05 09:10:15;;;;;;;28.00;10.37;;;;;;;39.22;43.57;101053.53;4771020;30;20491;-70
2022/04/05 09:12:43;;;;;;;27.60;11.87;;;;;;;39.12;43.71;101059.22;4756221;30;20941;-71
2022/04/05 09:15:21;;;;;;;48.40;15.60;;;;;;;39.16;43.89;101065.63;4770987;30;20534;-69
2022/04/05 09:17:48;;;;;;;21.80;12.10;;;;;;;39.26;43.74;101066.50;4770176;30;20491;-68
2022/04/05 09:20:17;;;;;;;21.47;11.17;;;;;;;39.42;43.26;101070.44;4772055;30;20511;-71
2022/04/05 09:22:44;;;;;;;19.83;8.57;;;;;;;39.34;43.34;101063.03;4771721;30;20489;-70
2022/04/05 09:25:19;;;;;;;24.83;10.57;;;;;;;39.50;43.27;101069.66;4770696;30;20521;-69
2022/04/05 09:27:55;;;;;;;29.33;9.80;;;;;;;39.54;43.50;101073.34;4741276;30;20459;-68
2022/04/05 09:30:29;;;;;;;25.83;9.77;;;;;;;39.36;43.93;101069.75;4770481;30;20705;-70
2022/04/05 09:33:01;;;;;;;26.87;8.40;;;;;;;39.43;43.71;101069.31;4771888;30;20499;-70
2022/04/05 09:35:41;;;;;;;28.33;13.20;;;;;;;39.34;43.81;101066.53;4771969;30;20450;-70
2022/04/05 09:38:15;;;;;;;28.53;11.10;;;;;;;39.28;43.68;101065.06;4770565;30;20479;-69
2022/04/05 09:40:43;;;;;;;32.00;11.17;;;;;;;39.42;43.43;101063.06;4770581;30;20969;-72
2022/04/05 09:43:17;;;;;;;17.50;9.33;;;;;;;39.41;43.27;101060.66;4770353;30;20483;-71
2022/04/05 09:45:51;;;;;;;37.87;11.90;;;;;;;39.34;43.49;101060.31;4770512;30;20432;-69
2022/04/05 09:48:20;;;;;;;29.00;11.33;;;;;;;39.22;43.43;101063.59;4770300;30;20921;-70
2022/04/05 09:51:11;;;;;;;33.63;15.53;;;;;;;39.15;43.97;101063.19;4769950;30;20535;-69
2022/04/05 09:53:41;;;;;;;22.33;9.10;;;;;;;39.11;43.91;101060.31;4770378;30;20524;-68
2022/04/05 09:56:22;;;;;;;49.93;11.67;;;;;;;39.00;44.05;101061.69;4770176;30;20511;-69
2022/04/05 09:58:54;;;;;;;21.53;11.57;;;;;;;39.25;43.69;101064.91;4770223;30;20468;-69
2022/04/05 10:01:23;;;;;;;25.73;10.97;;;;;;;39.29;43.69;101057.72;4770053;30;20486;-71
2022/04/05 10:04:08;;;;;;;34.87;10.90;;;;;;;39.47;43.16;101060.25;4770154;30;20511;-71
2022/04/05 10:06:39;;;;;;;25.23;11.10;;;;;;;39.45;43.46;101061.66;4770078;30;20428;-71
2022/04/05 10:09:07;;;;;;;18.37;8.47;;;;;;;39.31;42.45;101053.59;4770106;30;20416;-68
2022/04/05 10:11:35;;;;;;;21.57;9.40;;;;;;;39.34;42.79;101050.25;4769962;30;20515;-71
2022/04/05 10:14:02;;;;;;;22.50;9.30;;;;;;;39.30;42.57;101046.56;4770032;30;21180;-69
2022/04/05 10:16:29;;;;;;;25.47;11.20;;;;;;;39.41;42.47;101055.22;4769367;30;20435;-69
2022/04/05 10:19:01;;;;;;;24.87;9.90;;;;;;;39.36;42.78;101052.66;4754496;30;20917;-69
2022/04/05 10:21:28;;;;;;;34.53;9.30;;;;;;;39.55;42.51;101050.53;4769686;30;20428;-69
2022/04/05 10:23:56;;;;;;;22.43;11.00;;;;;;;39.73;41.97;101046.00;4769807;30;20441;-69
2022/04/05 10:26:26;;;;;;;16.47;10.77;;;;;;;39.52;42.39;101053.84;4769778;30;20444;-69
2022/04/05 10:28:55;;;;;;;18.57;8.73;;;;;;;39.61;41.93;101043.06;4755380;30;20470;-69
2022/04/05 10:31:36;;;;;;;26.13;8.57;;;;;;;39.83;41.89;101044.88;4769636;30;20832;-69
2022/04/05 10:34:21;;;;;;;13.90;7.70;;;;;;;39.92;41.65;101046.53;4769102;30;21081;-71
2022/04/05 10:37:10;;;;;;;28.90;10.17;;;;;;;39.89;41.89;101044.44;4770820;30;20483;-68
2022/04/05 10:39:37;;;;;;;26.97;13.67;;;;;;;39.83;41.35;101042.97;4769596;30;20448;-68
2022/04/05 10:42:10;;;;;;;29.83;12.97;;;;;;;39.74;41.93;101037.53;4754872;30;20936;-70
2022/04/05 10:44:37;;;;;;;21.10;9.10;;;;;;;39.83;42.04;101037.53;4770720;30;20499;-71
2022/04/05 10:47:07;;;;;;;37.07;9.80;;;;;;;39.83;42.01;101028.59;4769221;30;20432;-69
2022/04/05 10:49:40;;;;;;;20.00;8.53;;;;;;;40.09;41.30;101032.22;4769317;30;20443;-69
2022/04/05 10:52:11;;;;;;;20.10;9.40;;;;;;;39.88;41.76;101031.97;4769298;30;20443;-70
2022/04/05 10:54:48;;;;;;;33.17;9.67;;;;;;;39.97;41.43;101021.94;4769116;30;20994;-69
2022/04/05 10:57:17;;;;;;;13.77;7.20;;;;;;;40.08;41.56;101025.16;4769068;30;20427;-69
2022/04/05 10:59:49;;;;;;;20.43;9.47;;;;;;;40.05;41.65;101017.66;4769122;30;20832;-71
2022/04/05 11:02:42;;;;;;;29.47;10.80;;;;;;;39.99;42.10;101014.25;4768850;30;20484;-71
2022/04/05 11:05:14;;;;;;;17.23;11.07;;;;;;;40.15;41.81;101013.84;4770859;30;20447;-69
2022/04/05 11:07:52;;;;;;;23.57;9.80;;;;;;;40.10;41.18;101012.06;4769060;30;20944;-69
2022/04/05 11:10:20;;;;;;;21.93;9.40;;;;;;;40.01;41.55;101014.72;4770165;30;20543;-69
2022/04/05 11:12:47;;;;;;;21.23;9.40;;;;;;;40.08;41.58;101021.66;4768943;30;20956;-69
2022/04/05 11:15:16;;;;;;;30.90;11.40;;;;;;;40.04;41.94;101013.34;4768966;30;20467;-68